• Join FlightAware (Why Join?)
  • Login
  • US Flag 
10:05AM EDT


 

Airport Tracker/Info


-or-


 

Live Flight TrackerFlight Track Log ✈ N789EX ✈ 15-Apr-2014 ✈ KBFI - KMHR

Flight Track Log - Related Links

Times and Time Zones

All times are in EDT time to prevent confusion due to time zone crossing. See the N789EX flight status page for this flight to view local times or setup timezone preferences in your user account.

Time Position Orientation Groundspeed Altitude Reporting Facility
EDT Latitude Longitude Course Direction KTS MPH feet Rate Location/Type
11:50AM 47.4829 -122.2570 146° Southeast 222 255 2,100  Level FlightAware ADS-B
11:50AM 47.4698 -122.2440 146° Southeast 233 268 2,700 2,760 Climbing FlightAware ADS-B
11:50AM 47.4559 -122.2310 146° Southeast 240 276 3,500 2,760 Climbing FlightAware ADS-B
11:50AM 47.4431 -122.2180 146° Southeast 253 291 4,000 2,580 Climbing FlightAware ADS-B
11:51AM 47.4338 -122.2090 147° Southeast 258 297 4,500 3,180 Climbing FlightAware ADS-B
11:51AM 47.4289 -122.2050 151° Southeast 259 298 4,800 3,720 Climbing FlightAware ADS-B
11:51AM 47.4250 -122.2020 155° Southeast 260 299 5,000 3,420 Climbing FlightAware ADS-B
11:51AM 47.4211 -122.2000 161° South 262 302 5,200 2,520 Climbing FlightAware ADS-B
11:51AM 47.4174 -122.1980 165° South 264 304 5,300 2,520 Climbing FlightAware ADS-B
11:51AM 47.4128 -122.1970 170° South 265 305 5,500 3,000 Climbing FlightAware ADS-B
11:51AM 47.4052 -122.1960 173° South 268 308 5,800 2,820 Climbing FlightAware ADS-B
11:51AM 47.3860 -122.1930 175° South 280 322 6,500 2,760 Climbing FlightAware ADS-B
11:52AM 47.3657 -122.1900 174° South 290 334 7,200 2,880 Climbing FlightAware ADS-B
11:52AM 47.3451 -122.1870 174° South 295 339 8,000 3,360 Climbing FlightAware ADS-B
11:52AM 47.3259 -122.1840 173° South 293 337 8,900 3,300 Climbing FlightAware ADS-B
11:52AM 47.3048 -122.1800 173° South 302 348 9,600 2,220 Climbing FlightAware ADS-B
11:53AM 47.2614 -122.1720 173° South 332 382 10,600 1,680 Climbing FlightAware ADS-B
11:53AM 47.2127 -122.1630 173° South 368 423 11,300 1,920 Climbing FlightAware ADS-B
11:54AM 47.1840 -122.1581 173° South 376 433 12,200 2,700 Climbing FlightAware ADS-B (CYVR)
11:54AM 47.1605 -122.1540 173° South 378 435 12,700 2,880 Climbing FlightAware ADS-B
11:54AM 47.1107 -122.1447 173° South 386 444 14,100 3,000 Climbing FlightAware ADS-B (CYVR)
11:54AM 47.1079 -122.1440 173° South 387 445 14,200 2,400 Climbing FlightAware ADS-B
11:55AM 47.0528 -122.1370 176° South 398 458 15,400 2,460 Climbing FlightAware ADS-B
11:55AM 46.9964 -122.1320 176° South 409 471 16,700 2,400 Climbing FlightAware ADS-B
11:56AM 46.9648 -122.1293 177° South 414 476 17,400 2,280 Climbing FlightAware ADS-B (CYVR)
11:56AM 46.9387 -122.1270 177° South 418 481 17,900 2,340 Climbing FlightAware ADS-B
11:56AM 46.8881 -122.1225 177° South 424 488 18,900 2,400 Climbing FlightAware ADS-B (CYVR)
11:56AM 46.8799 -122.1220 176° South 424 488 19,100 2,460 Climbing FlightAware ADS-B
11:57AM 46.8209 -122.1170 176° South 428 493 20,300 2,400 Climbing FlightAware ADS-B
11:57AM 46.8422 -122.1185 177° South 427 491 20,700 2,160 Climbing FlightAware ADS-B (CYVR)
11:57AM 46.7603 -122.1110 176° South 436 502 21,400 1,920 Climbing FlightAware ADS-B
11:58AM 46.7219 -122.1073 176° South 442 509 22,000 1,560 Climbing FlightAware ADS-B (KSLE)
11:58AM 46.6992 -122.1050 177° South 448 516 22,200 1,080 Climbing FlightAware ADS-B
11:58AM 46.6437 -122.1004 177° South 463 533 22,700 1,140 Climbing FlightAware ADS-B (CYVR)
11:58AM 46.6351 -122.1000 177° South 465 535 22,800 1,260 Climbing FlightAware ADS-B
11:59AM 46.5695 -122.0940 177° South 481 554 23,400 1,380 Climbing FlightAware ADS-B
11:59AM 46.5490 -122.0922 176° South 484 557 23,700 1,500 Climbing FlightAware ADS-B (KSLE)
11:59AM 46.4999 -122.0880 176° South 491 565 24,200 1,560 Climbing FlightAware ADS-B
12:00PM 46.4653 -122.0846 176° South 496 571 24,700 1,740 Climbing FlightAware ADS-B (KSLE)
12:00PM 46.4271 -122.0810 176° South 499 574 25,100 1,620 Climbing FlightAware ADS-B
12:00PM 46.4474 -122.0830 176° South 505 581 25,800 1,740 Climbing FlightAware ADS-B (KSLE)
12:00PM 46.3570 -122.0750 176° South 505 581 26,000 1,620 Climbing FlightAware ADS-B
12:01PM 46.2868 -122.0690 177° South 510 587 26,800 1,680 Climbing FlightAware ADS-B
12:01PM 46.2816 -122.0681 177° South 511 588 27,000 1,560 Climbing FlightAware ADS-B (KSLE)
12:01PM 46.2139 -122.0620 177° South 515 593 27,600 1,500 Climbing FlightAware ADS-B
12:02PM 46.1786 -122.0591 177° South 517 595 28,000 1,500 Climbing FlightAware ADS-B (KSLE)
12:02PM 46.1418 -122.0560 176° South 519 597 28,400 1,680 Climbing FlightAware ADS-B
12:02PM 46.1044 -122.0526 177° South 521 600 28,900 1,380 Climbing FlightAware ADS-B (KSLE)
12:02PM 46.0688 -122.0490 176° South 523 602 29,100 1,320 Climbing FlightAware ADS-B
12:03PM 45.9957 -122.0430 177° South 526 605 29,900 1,380 Climbing FlightAware ADS-B
12:03PM 45.9933 -122.0428 177° South 526 605 29,900 1,200 Level FlightAware ADS-B (KSLE)
12:03PM 45.9226 -122.0370 177° South 530 610 30,500 1,260 Climbing FlightAware ADS-B
12:04PM 45.8908 -122.0339 176° South 532 612 30,800 960 Climbing FlightAware ADS-B (KSLE)
12:04PM 45.8489 -122.0300 176° South 536 617 31,000 300 Climbing FlightAware ADS-B
12:04PM 45.7953 -122.0255 177° South 550 633 31,000  Level FlightAware ADS-B (KSLE)
12:04PM 45.7728 -122.0240 176° South 554 638 31,000  Level FlightAware ADS-B
12:05PM 45.6942 -122.0170 177° South 565 650 31,000  Level FlightAware ADS-B
12:05PM 45.6884 -122.0162 177° South 566 651 31,000  Level FlightAware ADS-B (KSLE)
12:05PM 45.6147 -122.0100 176° South 568 654 31,000  Level FlightAware ADS-B
12:06PM 45.5895 -122.0075 177° South 568 654 31,000  Level FlightAware ADS-B (KSLE)
12:06PM 45.5360 -122.0030 176° South 568 654 31,000  Level FlightAware ADS-B
12:06PM 45.4874 -121.9986 177° South 566 651 31,000  Level FlightAware ADS-B (KSLE)
12:06PM 45.4566 -121.9960 177° South 566 651 31,000  Level FlightAware ADS-B
12:07PM 45.3783 -121.9890 177° South 565 650 31,000  Level FlightAware ADS-B
12:07PM 45.3768 -121.9890 177° South 565 650 31,000  Level FlightAware ADS-B (KSLE)
12:07PM 45.2992 -121.9820 177° South 563 648 31,000  Level FlightAware ADS-B
12:08PM 45.2686 -121.9798 177° South 562 647 31,000  Level FlightAware ADS-B (KSLE)
12:08PM 45.1971 -121.9740 177° South 562 647 31,000  Level FlightAware ADS-B
12:08PM 45.1620 -121.9707 177° South 559 643 31,000  Level FlightAware ADS-B (KSLE)
12:09PM 45.0863 -121.9640 176° South 557 641 31,000  Level FlightAware ADS-B
12:09PM 45.0601 -121.9622 177° South 556 640 31,000  Level FlightAware ADS-B (KSLE)
12:10PM 44.9575 -121.9536 177° South 552 635 31,000  Level FlightAware ADS-B (KSLE)
12:10PM 44.8623 -121.9456 177° South 551 634 31,000  Level FlightAware ADS-B (KSLE)
12:11PM 44.7536 -121.9365 177° South 550 633 31,000  Level FlightAware ADS-B (KSLE)
12:12PM 44.6521 -121.9280 177° South 549 632 31,000  Level FlightAware ADS-B (KSLE)
12:12PM 44.5529 -121.9197 177° South 547 629 31,000  Level FlightAware ADS-B (KSLE)
12:13PM 44.4510 -121.9113 177° South 546 628 31,000  Level FlightAware ADS-B (KSLE)
12:14PM 44.3512 -121.9030 177° South 545 627 31,000  Level FlightAware ADS-B (KSLE)
12:14PM 44.2516 -121.8948 177° South 547 629 31,000  Level FlightAware ADS-B (KSLE)
12:15PM 44.1834 -121.8891 177° South 545 627 31,000  Level FlightAware ADS-B (KSLE)
12:16PM 44.0528 -121.8782 177° South 542 624 31,000 -180 Level FlightAware ADS-B (KSLE)
12:16PM 43.9579 -121.8705 177° South 541 623 30,800 -780 Descending FlightAware ADS-B (KSLE)
12:17PM 43.8571 -121.8623 177° South 540 621 30,000 -1,260 Descending FlightAware ADS-B (KSLE)
12:18PM 43.7489 -121.8535 177° South 541 623 29,100 -540 Descending FlightAware ADS-B (KSLE)
12:19PM 43.5647 -121.8369 177° South 540 621 29,000 -60 Descending Seattle Center
12:20PM 43.4142 -121.8253 177° South 540 621 29,000  Level Seattle Center
12:21PM 43.2650 -121.8133 177° South 540 621 29,000  Level Seattle Center
12:22PM 43.1144 -121.8014 177° South 541 623 29,000  Level Seattle Center
12:23PM 42.9644 -121.7906 177° South 541 623 29,000  Level Seattle Center
12:24PM 42.8147 -121.7783 177° South 541 623 29,000  Level Seattle Center
12:25PM 42.6658 -121.7669 177° South 537 618 29,000  Level Seattle Center
12:26PM 42.5164 -121.7550 177° South 537 618 29,000  Level Seattle Center
12:27PM 42.3647 -121.7444 177° South 539 620 29,000  Level Seattle Center
12:28PM 42.2119 -121.7322 177° South 543 625 29,000  Level Seattle Center
12:29PM 42.0628 -121.7511 185° South 530 610 29,000  Level Seattle Center
12:30PM 41.9169 -121.7883 191° South 525 604 29,000  Level Seattle Center
12:31PM 41.7733 -121.8258 191° South 521 600 29,000  Level Seattle Center
12:32PM 41.6289 -121.8628 191° South 521 600 29,000  Level Seattle Center
12:33PM 41.4850 -121.8992 191° South 523 602 29,000  Level Seattle Center
12:38PM 40.7303 -121.8211 166° South 545 627 29,000 -420 Level FlightAware ADS-B
12:42PM 40.2599 -121.6771 167° South 524 603 25,800 -1,080 Descending FlightAware ADS-B
12:42PM 40.1608 -121.6473 167° South 520 598 25,000 -1,500 Descending FlightAware ADS-B
12:43PM 40.0238 -121.6063 167° South 504 580 23,400 -1,260 Descending FlightAware ADS-B
12:44PM 39.9401 -121.5815 167° South 499 574 23,000 -1,380 Descending FlightAware ADS-B
12:45PM 39.8410 -121.5702 178° South 487 560 21,600 -2,160 Descending FlightAware ADS-B
12:45PM 39.7499 -121.5676 178° South 470 541 20,100 -2,640 Descending FlightAware ADS-B
12:47PM 39.5813 -121.5270 165° South 455 524 16,300 -2,640 Descending FlightAware ADS-B
12:47PM 39.5085 -121.5020 165° South 441 507 14,900 -2,160 Descending FlightAware ADS-B
12:48PM 39.4257 -121.4733 164° South 433 498 13,500 -1,980 Descending FlightAware ADS-B
12:49PM 39.2783 -121.4110 153° Southeast 399 459 11,000 -1,620 Descending FlightAware ADS-B
12:50PM 39.2146 -121.3691 152° Southeast 370 426 10,300 -720 Descending FlightAware ADS-B
12:51PM 39.1591 -121.3322 152° Southeast 329 379 10,100 -300 Descending FlightAware ADS-B
12:51PM 39.1062 -121.2968 152° Southeast 296 341 9,900 -600 Descending FlightAware ADS-B
12:52PM 39.0818 -121.2806 152° Southeast 288 331 9,500 -1,380 Descending FlightAware ADS-B
12:53PM 39.0111 -121.2345 153° Southeast 284 327 8,100 -1,320 Descending FlightAware ADS-B
12:53PM 38.9900 -121.2210 153° Southeast 280 322 7,800 -1,080 Descending FlightAware ADS-B
12:53PM 38.9649 -121.2049 153° Southeast 274 315 7,400 -1,380 Descending FlightAware ADS-B
12:54PM 38.9218 -121.1771 153° Southeast 265 305 6,700 -1,560 Descending FlightAware ADS-B (KLZD)
12:54PM 38.9111 -121.1702 154° Southeast 263 303 6,300 -1,020 Descending FlightAware ADS-B (KLZD)
12:54PM 38.9002 -121.1634 154° Southeast 262 302 6,200 -1,020 Descending FlightAware ADS-B
12:55PM 38.8784 -121.1501 154° Southeast 260 299 5,700 -1,320 Descending FlightAware ADS-B
12:55PM 38.8557 -121.1360 153° Southeast 259 298 5,300 -1,080 Descending FlightAware ADS-B
12:55PM 38.8347 -121.1236 159° South 252 290 5,000 -1,380 Descending FlightAware ADS-B
12:55PM 38.8154 -121.1207 184° South 247 284 4,700 -840 Descending FlightAware ADS-B (KLZD)
12:56PM 38.7875 -121.1231 185° South 248 285 4,600 -720 Descending FlightAware ADS-B (KLZD)
12:56PM 38.7630 -121.1290 195° South 253 291 4,200 -1,560 Descending FlightAware ADS-B (KLZD)
12:56PM 38.7389 -121.1382 198° South 256 295 3,500 -1,500 Descending FlightAware ADS-B (KLZD)
12:57PM 38.7333 -121.1406 199° South 245 282 3,200 -840 Descending FlightAware ADS-B (KLZD)
12:57PM 38.7044 -121.1530 199° South 224 258 3,000 -420 Descending FlightAware ADS-B (KLZD)
12:58PM 38.6812 -121.1631 199° South 214 246 2,900 -660 Descending FlightAware ADS-B
12:58PM 38.6644 -121.1708 199° South 200 230 2,500 -1,080 Descending FlightAware ADS-B
12:58PM 38.6466 -121.1793 200° South 177 204 2,200 -780 Descending FlightAware ADS-B
12:59PM 38.6329 -121.1857 200° South 167 192 2,000 -600 Descending FlightAware ADS-B
12:59PM 38.6187 -121.1946 211° Southwest 157 181 1,800 -600 Descending FlightAware ADS-B
12:59PM 38.6088 -121.2064 228° Southwest 157 181 1,600 -780 Descending FlightAware ADS-B
01:00PM 38.5986 -121.2211 229° Southwest 159 183 1,300 -900 Descending FlightAware ADS-B
01:00PM 38.5893 -121.2360 233° Southwest 160 184 1,000 -960 Descending FlightAware ADS-B
01:00PM 38.5811 -121.2503 233° Southwest 159 183 700 -840 Descending FlightAware ADS-B
01:01PM 38.5728 -121.2649 233° Southwest 158 182 500 -780 Descending FlightAware ADS-B
01:01PM 38.5677 -121.2736 233° Southwest 158 182 200 -480 Descending FlightAware ADS-B
01:01PM 38.5500 -121.3019 233° Southwest 141 162 100 -120 Descending Oakland Center
01:02PM 38.5433 -121.3083 217° Southwest 119 137 100  Level Oakland Center